Saikhan-Ovoo, Mongolia
Current Conditions -  °F | °C
As of 7:30 AM on Saturday 20 Dec 2014 (Local Time) from ZMUB Reporting Station
Clear Clear  
Wind Chill: -22°   Ceiling: Unl
Heat Index: -22°   Visibility: 6mi
Dew Point: -29°   Wind: 2mph
Humidity: 69%   Direction: NA
Pressure: 30.3"   Gusts: NA
Location:  45.45°N, 103.9°E
Report Text: ZMUB 192330Z VRB01MPS CAVOK M30/M34 Q1026 NOSIG RMK QFE661.6 68
Loading
Personal Weather Stations






























Interactive Weather Map New forecast layout! Learn more

10-Day Weather Forecast

Advertisements
Track Severe Weather on mobile